sensor_id;sensor_type;location;lat;lon;timestamp;P1;durP1;ratioP1;P2;durP2;ratioP2
15573;SDS011;7888;46.748;8.102;2023-02-18T00:01:11;1.60;;;0.80;;
15573;SDS011;7888;46.748;8.102;2023-02-18T00:03:40;1.30;;;0.80;;
15573;SDS011;7888;46.748;8.102;2023-02-18T00:06:13;2.07;;;1.07;;
15573;SDS011;7888;46.748;8.102;2023-02-18T00:08:44;0.97;;;0.87;;
15573;SDS011;7888;46.748;8.102;2023-02-18T00:11:11;2.23;;;1.10;;
15573;SDS011;7888;46.748;8.102;2023-02-18T00:13:37;3.67;;;1.00;;
15573;SDS011;7888;46.748;8.102;2023-02-18T00:16:04;2.03;;;0.90;;
15573;SDS011;7888;46.748;8.102;2023-02-18T00:18:33;1.57;;;1.00;;
15573;SDS011;7888;46.748;8.102;2023-02-18T00:20:59;0.77;;;0.60;;
15573;SDS011;7888;46.748;8.102;2023-02-18T00:23:28;2.17;;;0.90;;
15573;SDS011;7888;46.748;8.102;2023-02-18T00:26:01;1.23;;;1.07;;
15573;SDS011;7888;46.748;8.102;2023-02-18T00:28:31;0.90;;;0.70;;
15573;SDS011;7888;46.748;8.102;2023-02-18T00:30:56;1.10;;;0.87;;
15573;SDS011;7888;46.748;8.102;2023-02-18T00:33:22;3.07;;;1.07;;
15573;SDS011;7888;46.748;8.102;2023-02-18T00:35:48;1.90;;;1.07;;
15573;SDS011;7888;46.748;8.102;2023-02-18T00:38:14;1.40;;;0.90;;
15573;SDS011;7888;46.748;8.102;2023-02-18T00:40:41;0.93;;;0.73;;
15573;SDS011;7888;46.748;8.102;2023-02-18T00:43:07;1.00;;;0.87;;
15573;SDS011;7888;46.748;8.102;2023-02-18T00:45:34;0.80;;;0.70;;
15573;SDS011;7888;46.748;8.102;2023-02-18T00:48:00;1.53;;;0.70;;
15573;SDS011;7888;46.748;8.102;2023-02-18T00:50:26;1.10;;;0.87;;
15573;SDS011;7888;46.748;8.102;2023-02-18T00:52:51;2.03;;;0.90;;
15573;SDS011;7888;46.748;8.102;2023-02-18T00:55:17;1.23;;;0.70;;
15573;SDS011;7888;46.748;8.102;2023-02-18T00:57:43;2.27;;;0.77;;
15573;SDS011;7888;46.748;8.102;2023-02-18T01:00:09;1.53;;;0.80;;
15573;SDS011;7888;46.748;8.102;2023-02-18T01:02:35;0.40;;;0.40;;
15573;SDS011;7888;46.748;8.102;2023-02-18T01:05:01;2.20;;;0.70;;
15573;SDS011;7888;46.748;8.102;2023-02-18T01:07:27;1.17;;;0.50;;
15573;SDS011;7888;46.748;8.102;2023-02-18T01:09:53;0.90;;;0.60;;
15573;SDS011;7888;46.748;8.102;2023-02-18T01:12:19;3.33;;;0.73;;
15573;SDS011;7888;46.748;8.102;2023-02-18T01:14:45;1.10;;;0.70;;
15573;SDS011;7888;46.748;8.102;2023-02-18T01:17:11;1.40;;;0.70;;
15573;SDS011;7888;46.748;8.102;2023-02-18T01:19:36;0.60;;;0.60;;
15573;SDS011;7888;46.748;8.102;2023-02-18T01:22:02;1.87;;;0.67;;
15573;SDS011;7888;46.748;8.102;2023-02-18T01:24:28;2.53;;;0.90;;
15573;SDS011;7888;46.748;8.102;2023-02-18T01:26:54;1.23;;;0.60;;
15573;SDS011;7888;46.748;8.102;2023-02-18T01:29:19;1.93;;;0.73;;
15573;SDS011;7888;46.748;8.102;2023-02-18T01:31:45;1.23;;;0.77;;
15573;SDS011;7888;46.748;8.102;2023-02-18T01:34:11;1.93;;;0.70;;
15573;SDS011;7888;46.748;8.102;2023-02-18T01:36:37;0.70;;;0.67;;
15573;SDS011;7888;46.748;8.102;2023-02-18T01:39:04;0.70;;;0.70;;
15573;SDS011;7888;46.748;8.102;2023-02-18T01:41:30;2.70;;;1.00;;
15573;SDS011;7888;46.748;8.102;2023-02-18T01:44:13;0.70;;;0.63;;
15573;SDS011;7888;46.748;8.102;2023-02-18T01:46:39;3.17;;;0.77;;
15573;SDS011;7888;46.748;8.102;2023-02-18T01:49:05;1.30;;;0.60;;
15573;SDS011;7888;46.748;8.102;2023-02-18T01:51:40;0.67;;;0.60;;
15573;SDS011;7888;46.748;8.102;2023-02-18T01:56:54;1.30;;;0.80;;
15573;SDS011;7888;46.748;8.102;2023-02-18T01:59:39;2.67;;;0.80;;
15573;SDS011;7888;46.748;8.102;2023-02-18T02:02:11;0.93;;;0.90;;
15573;SDS011;7888;46.748;8.102;2023-02-18T02:04:43;1.53;;;1.10;;
15573;SDS011;7888;46.748;8.102;2023-02-18T02:07:09;1.70;;;1.17;;
15573;SDS011;7888;46.748;8.102;2023-02-18T02:09:36;1.53;;;0.90;;
15573;SDS011;7888;46.748;8.102;2023-02-18T02:17:34;0.80;;;0.70;;
15573;SDS011;7888;46.748;8.102;2023-02-18T02:23:19;1.77;;;0.60;;
15573;SDS011;7888;46.748;8.102;2023-02-18T02:26:50;0.87;;;0.57;;
15573;SDS011;7888;46.748;8.102;2023-02-18T02:35:22;0.60;;;0.50;;
15573;SDS011;7888;46.748;8.102;2023-02-18T02:38:25;1.93;;;0.70;;
15573;SDS011;7888;46.748;8.102;2023-02-18T02:41:20;0.70;;;0.50;;
15573;SDS011;7888;46.748;8.102;2023-02-18T02:44:30;0.87;;;0.57;;
15573;SDS011;7888;46.748;8.102;2023-02-18T02:47:19;1.30;;;0.90;;
15573;SDS011;7888;46.748;8.102;2023-02-18T02:50:39;1.07;;;0.50;;
15573;SDS011;7888;46.748;8.102;2023-02-18T02:53:19;0.87;;;0.50;;
15573;SDS011;7888;46.748;8.102;2023-02-18T02:55:52;1.30;;;0.57;;
15573;SDS011;7888;46.748;8.102;2023-02-18T02:58:20;1.13;;;0.70;;
15573;SDS011;7888;46.748;8.102;2023-02-18T03:04:08;1.20;;;0.87;;
15573;SDS011;7888;46.748;8.102;2023-02-18T03:10:02;0.50;;;0.50;;
15573;SDS011;7888;46.748;8.102;2023-02-18T03:18:28;2.30;;;0.50;;
15573;SDS011;7888;46.748;8.102;2023-02-18T03:21:06;0.60;;;0.50;;
15573;SDS011;7888;46.748;8.102;2023-02-18T03:23:39;0.50;;;0.43;;
15573;SDS011;7888;46.748;8.102;2023-02-18T03:26:14;0.93;;;0.63;;
15573;SDS011;7888;46.748;8.102;2023-02-18T03:28:43;1.23;;;0.67;;
15573;SDS011;7888;46.748;8.102;2023-02-18T03:31:14;0.73;;;0.57;;
15573;SDS011;7888;46.748;8.102;2023-02-18T03:33:46;1.03;;;0.80;;
15573;SDS011;7888;46.748;8.102;2023-02-18T03:36:20;0.63;;;0.50;;
15573;SDS011;7888;46.748;8.102;2023-02-18T03:41:33;1.03;;;0.60;;
15573;SDS011;7888;46.748;8.102;2023-02-18T03:44:00;0.70;;;0.50;;
15573;SDS011;7888;46.748;8.102;2023-02-18T03:46:30;0.90;;;0.80;;
15573;SDS011;7888;46.748;8.102;2023-02-18T03:48:57;2.33;;;1.20;;
15573;SDS011;7888;46.748;8.102;2023-02-18T03:51:23;4.10;;;1.73;;
15573;SDS011;7888;46.748;8.102;2023-02-18T03:53:49;3.20;;;1.87;;
15573;SDS011;7888;46.748;8.102;2023-02-18T03:56:15;1.33;;;1.00;;
15573;SDS011;7888;46.748;8.102;2023-02-18T03:58:42;2.57;;;1.00;;
15573;SDS011;7888;46.748;8.102;2023-02-18T04:01:08;2.00;;;1.27;;
15573;SDS011;7888;46.748;8.102;2023-02-18T04:03:34;1.10;;;1.00;;
15573;SDS011;7888;46.748;8.102;2023-02-18T04:06:00;1.20;;;0.80;;
15573;SDS011;7888;46.748;8.102;2023-02-18T04:08:26;1.77;;;0.97;;
15573;SDS011;7888;46.748;8.102;2023-02-18T04:10:52;2.60;;;1.00;;
15573;SDS011;7888;46.748;8.102;2023-02-18T04:13:18;0.90;;;0.70;;
15573;SDS011;7888;46.748;8.102;2023-02-18T04:15:44;0.80;;;0.70;;
15573;SDS011;7888;46.748;8.102;2023-02-18T04:18:13;1.03;;;0.70;;
15573;SDS011;7888;46.748;8.102;2023-02-18T04:20:39;1.33;;;0.80;;
15573;SDS011;7888;46.748;8.102;2023-02-18T04:23:05;0.70;;;0.70;;
15573;SDS011;7888;46.748;8.102;2023-02-18T04:25:31;1.90;;;0.77;;
15573;SDS011;7888;46.748;8.102;2023-02-18T04:27:57;0.93;;;0.70;;
15573;SDS011;7888;46.748;8.102;2023-02-18T04:30:23;1.30;;;0.67;;
15573;SDS011;7888;46.748;8.102;2023-02-18T04:32:49;1.27;;;0.70;;
15573;SDS011;7888;46.748;8.102;2023-02-18T04:35:15;2.30;;;0.90;;
15573;SDS011;7888;46.748;8.102;2023-02-18T04:37:41;0.90;;;0.60;;
15573;SDS011;7888;46.748;8.102;2023-02-18T04:40:07;1.07;;;0.70;;
15573;SDS011;7888;46.748;8.102;2023-02-18T04:42:34;2.20;;;0.40;;
15573;SDS011;7888;46.748;8.102;2023-02-18T04:44:59;0.90;;;0.50;;
15573;SDS011;7888;46.748;8.102;2023-02-18T04:47:26;1.80;;;0.40;;
15573;SDS011;7888;46.748;8.102;2023-02-18T04:49:51;2.00;;;0.80;;
15573;SDS011;7888;46.748;8.102;2023-02-18T04:52:18;0.43;;;0.43;;
15573;SDS011;7888;46.748;8.102;2023-02-18T04:54:43;1.40;;;0.60;;
15573;SDS011;7888;46.748;8.102;2023-02-18T04:57:10;1.17;;;0.63;;
15573;SDS011;7888;46.748;8.102;2023-02-18T04:59:36;1.20;;;0.80;;
15573;SDS011;7888;46.748;8.102;2023-02-18T05:02:02;1.27;;;0.70;;
15573;SDS011;7888;46.748;8.102;2023-02-18T05:04:29;0.70;;;0.70;;
15573;SDS011;7888;46.748;8.102;2023-02-18T05:06:58;0.90;;;0.60;;
15573;SDS011;7888;46.748;8.102;2023-02-18T05:09:24;0.80;;;0.80;;
15573;SDS011;7888;46.748;8.102;2023-02-18T05:11:50;1.03;;;0.70;;
15573;SDS011;7888;46.748;8.102;2023-02-18T05:14:16;0.83;;;0.80;;
15573;SDS011;7888;46.748;8.102;2023-02-18T05:16:42;1.03;;;0.70;;
15573;SDS011;7888;46.748;8.102;2023-02-18T05:19:09;1.23;;;0.70;;
15573;SDS011;7888;46.748;8.102;2023-02-18T05:21:39;1.53;;;1.10;;
15573;SDS011;7888;46.748;8.102;2023-02-18T05:24:06;1.20;;;1.10;;
15573;SDS011;7888;46.748;8.102;2023-02-18T05:26:33;1.40;;;1.30;;
15573;SDS011;7888;46.748;8.102;2023-02-18T05:28:59;1.80;;;1.00;;
15573;SDS011;7888;46.748;8.102;2023-02-18T05:31:25;1.47;;;1.10;;
15573;SDS011;7888;46.748;8.102;2023-02-18T05:33:51;0.93;;;0.87;;
15573;SDS011;7888;46.748;8.102;2023-02-18T05:36:17;1.33;;;0.90;;
15573;SDS011;7888;46.748;8.102;2023-02-18T05:38:42;1.03;;;0.70;;
15573;SDS011;7888;46.748;8.102;2023-02-18T05:41:08;0.83;;;0.70;;
15573;SDS011;7888;46.748;8.102;2023-02-18T05:43:34;0.73;;;0.60;;
15573;SDS011;7888;46.748;8.102;2023-02-18T05:46:20;0.57;;;0.53;;
15573;SDS011;7888;46.748;8.102;2023-02-18T05:48:46;1.17;;;0.60;;
15573;SDS011;7888;46.748;8.102;2023-02-18T05:51:12;0.53;;;0.50;;
15573;SDS011;7888;46.748;8.102;2023-02-18T05:53:38;1.07;;;0.60;;
15573;SDS011;7888;46.748;8.102;2023-02-18T05:56:04;0.93;;;0.63;;
15573;SDS011;7888;46.748;8.102;2023-02-18T05:58:30;0.70;;;0.50;;
15573;SDS011;7888;46.748;8.102;2023-02-18T06:00:56;0.80;;;0.60;;
15573;SDS011;7888;46.748;8.102;2023-02-18T06:03:22;1.53;;;0.80;;
15573;SDS011;7888;46.748;8.102;2023-02-18T06:05:49;2.67;;;1.30;;
15573;SDS011;7888;46.748;8.102;2023-02-18T06:08:16;1.10;;;0.90;;
15573;SDS011;7888;46.748;8.102;2023-02-18T06:10:44;2.20;;;1.00;;
15573;SDS011;7888;46.748;8.102;2023-02-18T06:13:10;2.13;;;1.20;;
15573;SDS011;7888;46.748;8.102;2023-02-18T06:15:36;2.93;;;1.40;;
15573;SDS011;7888;46.748;8.102;2023-02-18T06:18:03;4.63;;;2.67;;
15573;SDS011;7888;46.748;8.102;2023-02-18T06:20:30;7.57;;;4.63;;
15573;SDS011;7888;46.748;8.102;2023-02-18T06:22:57;19.57;;;10.53;;
15573;SDS011;7888;46.748;8.102;2023-02-18T06:25:23;25.67;;;13.60;;
15573;SDS011;7888;46.748;8.102;2023-02-18T06:27:49;26.97;;;15.17;;
15573;SDS011;7888;46.748;8.102;2023-02-18T06:30:15;20.40;;;13.17;;
15573;SDS011;7888;46.748;8.102;2023-02-18T06:32:41;25.90;;;16.27;;
15573;SDS011;7888;46.748;8.102;2023-02-18T06:35:07;35.60;;;23.23;;
15573;SDS011;7888;46.748;8.102;2023-02-18T06:37:33;38.03;;;25.43;;
15573;SDS011;7888;46.748;8.102;2023-02-18T06:39:58;35.00;;;24.10;;
15573;SDS011;7888;46.748;8.102;2023-02-18T06:42:24;28.30;;;17.77;;
15573;SDS011;7888;46.748;8.102;2023-02-18T06:44:50;16.90;;;11.57;;
15573;SDS011;7888;46.748;8.102;2023-02-18T06:47:16;9.77;;;6.70;;
15573;SDS011;7888;46.748;8.102;2023-02-18T06:49:41;8.03;;;5.13;;
15573;SDS011;7888;46.748;8.102;2023-02-18T06:52:07;5.03;;;2.87;;
15573;SDS011;7888;46.748;8.102;2023-02-18T06:54:33;2.70;;;1.50;;
15573;SDS011;7888;46.748;8.102;2023-02-18T06:56:59;2.33;;;1.60;;
15573;SDS011;7888;46.748;8.102;2023-02-18T06:59:25;2.47;;;1.77;;
15573;SDS011;7888;46.748;8.102;2023-02-18T07:01:51;2.37;;;1.20;;
15573;SDS011;7888;46.748;8.102;2023-02-18T07:04:16;2.00;;;1.30;;
15573;SDS011;7888;46.748;8.102;2023-02-18T07:06:42;1.73;;;1.20;;
15573;SDS011;7888;46.748;8.102;2023-02-18T07:09:08;2.27;;;1.73;;
15573;SDS011;7888;46.748;8.102;2023-02-18T07:11:34;4.00;;;1.83;;
15573;SDS011;7888;46.748;8.102;2023-02-18T07:14:00;3.03;;;1.77;;
15573;SDS011;7888;46.748;8.102;2023-02-18T07:16:25;1.70;;;1.10;;
15573;SDS011;7888;46.748;8.102;2023-02-18T07:18:51;2.40;;;1.10;;
15573;SDS011;7888;46.748;8.102;2023-02-18T07:21:17;1.33;;;0.80;;
15573;SDS011;7888;46.748;8.102;2023-02-18T07:23:43;2.30;;;1.17;;
15573;SDS011;7888;46.748;8.102;2023-02-18T07:26:09;1.80;;;0.80;;
15573;SDS011;7888;46.748;8.102;2023-02-18T07:28:38;2.87;;;1.67;;
15573;SDS011;7888;46.748;8.102;2023-02-18T07:31:05;2.00;;;1.30;;
15573;SDS011;7888;46.748;8.102;2023-02-18T07:33:32;1.70;;;1.30;;
15573;SDS011;7888;46.748;8.102;2023-02-18T07:35:59;2.17;;;1.50;;
15573;SDS011;7888;46.748;8.102;2023-02-18T07:38:27;2.30;;;1.20;;
15573;SDS011;7888;46.748;8.102;2023-02-18T07:40:53;2.17;;;1.50;;
15573;SDS011;7888;46.748;8.102;2023-02-18T07:43:20;1.30;;;1.20;;
15573;SDS011;7888;46.748;8.102;2023-02-18T07:45:46;1.97;;;1.30;;
15573;SDS011;7888;46.748;8.102;2023-02-18T07:48:12;2.67;;;1.50;;
15573;SDS011;7888;46.748;8.102;2023-02-18T07:50:40;2.47;;;1.50;;
15573;SDS011;7888;46.748;8.102;2023-02-18T07:53:09;2.07;;;1.07;;
15573;SDS011;7888;46.748;8.102;2023-02-18T07:55:38;1.83;;;1.20;;
15573;SDS011;7888;46.748;8.102;2023-02-18T07:58:16;2.03;;;1.20;;
15573;SDS011;7888;46.748;8.102;2023-02-18T08:00:51;2.20;;;0.97;;
15573;SDS011;7888;46.748;8.102;2023-02-18T08:03:19;1.87;;;1.33;;
15573;SDS011;7888;46.748;8.102;2023-02-18T08:05:49;2.27;;;1.20;;
15573;SDS011;7888;46.748;8.102;2023-02-18T08:08:18;2.03;;;1.60;;
15573;SDS011;7888;46.748;8.102;2023-02-18T08:10:47;0.80;;;0.80;;
15573;SDS011;7888;46.748;8.102;2023-02-18T08:13:15;1.10;;;0.70;;
15573;SDS011;7888;46.748;8.102;2023-02-18T08:15:41;1.03;;;0.90;;
15573;SDS011;7888;46.748;8.102;2023-02-18T08:18:09;1.03;;;0.93;;
15573;SDS011;7888;46.748;8.102;2023-02-18T08:20:44;1.10;;;0.90;;
15573;SDS011;7888;46.748;8.102;2023-02-18T08:23:11;0.97;;;0.77;;
15573;SDS011;7888;46.748;8.102;2023-02-18T08:25:38;1.07;;;0.90;;
15573;SDS011;7888;46.748;8.102;2023-02-18T08:28:04;1.10;;;0.70;;
15573;SDS011;7888;46.748;8.102;2023-02-18T08:30:30;2.93;;;0.97;;
15573;SDS011;7888;46.748;8.102;2023-02-18T08:32:56;1.30;;;0.80;;
15573;SDS011;7888;46.748;8.102;2023-02-18T08:35:22;0.80;;;0.70;;
15573;SDS011;7888;46.748;8.102;2023-02-18T08:37:48;1.70;;;0.90;;
15573;SDS011;7888;46.748;8.102;2023-02-18T08:40:14;1.30;;;1.00;;
15573;SDS011;7888;46.748;8.102;2023-02-18T08:42:40;2.23;;;1.00;;
15573;SDS011;7888;46.748;8.102;2023-02-18T08:45:06;1.50;;;1.00;;
15573;SDS011;7888;46.748;8.102;2023-02-18T08:47:32;1.07;;;0.80;;
15573;SDS011;7888;46.748;8.102;2023-02-18T08:49:59;4.53;;;1.10;;
15573;SDS011;7888;46.748;8.102;2023-02-18T08:52:26;1.50;;;0.90;;
15573;SDS011;7888;46.748;8.102;2023-02-18T08:54:53;2.10;;;1.10;;
15573;SDS011;7888;46.748;8.102;2023-02-18T08:57:18;1.37;;;0.93;;
15573;SDS011;7888;46.748;8.102;2023-02-18T08:59:44;2.47;;;0.97;;
15573;SDS011;7888;46.748;8.102;2023-02-18T09:02:11;1.50;;;1.40;;
15573;SDS011;7888;46.748;8.102;2023-02-18T09:04:39;2.07;;;1.30;;
15573;SDS011;7888;46.748;8.102;2023-02-18T09:07:05;1.70;;;1.20;;
15573;SDS011;7888;46.748;8.102;2023-02-18T09:09:31;3.47;;;1.50;;
15573;SDS011;7888;46.748;8.102;2023-02-18T09:11:57;1.93;;;1.13;;
15573;SDS011;7888;46.748;8.102;2023-02-18T09:14:23;1.97;;;1.20;;
15573;SDS011;7888;46.748;8.102;2023-02-18T09:16:48;0.67;;;0.60;;
15573;SDS011;7888;46.748;8.102;2023-02-18T09:19:15;1.07;;;0.83;;
15573;SDS011;7888;46.748;8.102;2023-02-18T09:21:42;2.30;;;0.90;;
15573;SDS011;7888;46.748;8.102;2023-02-18T09:24:08;1.50;;;0.97;;
15573;SDS011;7888;46.748;8.102;2023-02-18T09:26:34;2.00;;;0.90;;
15573;SDS011;7888;46.748;8.102;2023-02-18T09:29:01;2.93;;;1.40;;
15573;SDS011;7888;46.748;8.102;2023-02-18T09:31:27;2.17;;;1.23;;
15573;SDS011;7888;46.748;8.102;2023-02-18T09:33:54;1.10;;;1.00;;
15573;SDS011;7888;46.748;8.102;2023-02-18T09:36:24;1.30;;;1.00;;
15573;SDS011;7888;46.748;8.102;2023-02-18T09:38:51;1.33;;;1.10;;
15573;SDS011;7888;46.748;8.102;2023-02-18T09:46:52;2.33;;;0.90;;
15573;SDS011;7888;46.748;8.102;2023-02-18T09:49:30;1.00;;;0.87;;
15573;SDS011;7888;46.748;8.102;2023-02-18T09:52:44;1.00;;;0.90;;
15573;SDS011;7888;46.748;8.102;2023-02-18T09:55:00;3.53;;;0.87;;
15573;SDS011;7888;46.748;8.102;2023-02-18T09:57:42;0.93;;;0.63;;
15573;SDS011;7888;46.748;8.102;2023-02-18T10:00:14;0.90;;;0.80;;
15573;SDS011;7888;46.748;8.102;2023-02-18T10:03:10;1.27;;;0.80;;
15573;SDS011;7888;46.748;8.102;2023-02-18T10:05:45;2.07;;;0.97;;
15573;SDS011;7888;46.748;8.102;2023-02-18T10:08:28;0.90;;;0.90;;
15573;SDS011;7888;46.748;8.102;2023-02-18T10:11:45;0.80;;;0.80;;
15573;SDS011;7888;46.748;8.102;2023-02-18T10:14:13;1.80;;;0.90;;
15573;SDS011;7888;46.748;8.102;2023-02-18T10:16:41;1.40;;;0.80;;
15573;SDS011;7888;46.748;8.102;2023-02-18T10:21:50;1.00;;;0.70;;
15573;SDS011;7888;46.748;8.102;2023-02-18T10:26:55;2.87;;;1.23;;
15573;SDS011;7888;46.748;8.102;2023-02-18T10:29:23;1.93;;;1.40;;
15573;SDS011;7888;46.748;8.102;2023-02-18T10:47:19;1.10;;;0.70;;
15573;SDS011;7888;46.748;8.102;2023-02-18T10:52:53;0.53;;;0.40;;
15573;SDS011;7888;46.748;8.102;2023-02-18T10:55:34;0.57;;;0.50;;
15573;SDS011;7888;46.748;8.102;2023-02-18T11:01:04;0.87;;;0.50;;
15573;SDS011;7888;46.748;8.102;2023-02-18T11:03:42;1.20;;;0.50;;
15573;SDS011;7888;46.748;8.102;2023-02-18T11:06:30;1.33;;;0.80;;
15573;SDS011;7888;46.748;8.102;2023-02-18T11:09:04;2.70;;;0.80;;
15573;SDS011;7888;46.748;8.102;2023-02-18T11:11:37;0.90;;;0.77;;
15573;SDS011;7888;46.748;8.102;2023-02-18T11:14:05;1.83;;;0.70;;
15573;SDS011;7888;46.748;8.102;2023-02-18T11:16:40;1.40;;;0.70;;
15573;SDS011;7888;46.748;8.102;2023-02-18T11:22:07;1.40;;;0.87;;
15573;SDS011;7888;46.748;8.102;2023-02-18T11:24:43;0.90;;;0.70;;
15573;SDS011;7888;46.748;8.102;2023-02-18T11:30:13;0.93;;;0.63;;
15573;SDS011;7888;46.748;8.102;2023-02-18T11:32:40;3.65;;;1.00;;
15573;SDS011;7888;46.748;8.102;2023-02-18T11:35:15;0.97;;;0.70;;
15573;SDS011;7888;46.748;8.102;2023-02-18T11:37:48;1.57;;;0.63;;
15573;SDS011;7888;46.748;8.102;2023-02-18T11:42:51;1.08;;;0.57;;
15573;SDS011;7888;46.748;8.102;2023-02-18T11:45:48;1.53;;;0.73;;
15573;SDS011;7888;46.748;8.102;2023-02-18T11:48:35;1.52;;;0.68;;
15573;SDS011;7888;46.748;8.102;2023-02-18T11:51:01;1.67;;;0.73;;
15573;SDS011;7888;46.748;8.102;2023-02-18T11:53:30;1.35;;;0.80;;
15573;SDS011;7888;46.748;8.102;2023-02-18T11:56:00;1.50;;;0.90;;
15573;SDS011;7888;46.748;8.102;2023-02-18T11:58:38;0.70;;;0.63;;
15573;SDS011;7888;46.748;8.102;2023-02-18T12:01:14;0.88;;;0.60;;
15573;SDS011;7888;46.748;8.102;2023-02-18T12:04:13;2.15;;;0.95;;
15573;SDS011;7888;46.748;8.102;2023-02-18T12:06:44;1.15;;;0.80;;
15573;SDS011;7888;46.748;8.102;2023-02-18T12:09:37;2.33;;;0.73;;
15573;SDS011;7888;46.748;8.102;2023-02-18T12:12:12;1.77;;;0.67;;
15573;SDS011;7888;46.748;8.102;2023-02-18T12:14:51;1.52;;;1.00;;
15573;SDS011;7888;46.748;8.102;2023-02-18T12:20:17;0.90;;;0.60;;
15573;SDS011;7888;46.748;8.102;2023-02-18T12:28:30;0.77;;;0.70;;
15573;SDS011;7888;46.748;8.102;2023-02-18T13:06:11;1.38;;;0.80;;
15573;SDS011;7888;46.748;8.102;2023-02-18T13:08:46;1.70;;;0.80;;
15573;SDS011;7888;46.748;8.102;2023-02-18T13:14:25;1.25;;;0.73;;
15573;SDS011;7888;46.748;8.102;2023-02-18T13:17:03;0.65;;;0.50;;
15573;SDS011;7888;46.748;8.102;2023-02-18T13:19:44;1.38;;;0.75;;
15573;SDS011;7888;46.748;8.102;2023-02-18T13:22:24;1.20;;;0.80;;
15573;SDS011;7888;46.748;8.102;2023-02-18T13:24:53;1.58;;;0.70;;
15573;SDS011;7888;46.748;8.102;2023-02-18T13:27:35;1.48;;;0.70;;
15573;SDS011;7888;46.748;8.102;2023-02-18T13:30:21;0.93;;;0.80;;
15573;SDS011;7888;46.748;8.102;2023-02-18T13:35:37;1.30;;;1.10;;
15573;SDS011;7888;46.748;8.102;2023-02-18T13:41:26;1.05;;;0.80;;
15573;SDS011;7888;46.748;8.102;2023-02-18T13:43:52;0.80;;;0.80;;
15573;SDS011;7888;46.748;8.102;2023-02-18T13:46:19;1.55;;;0.90;;
15573;SDS011;7888;46.748;8.102;2023-02-18T13:51:30;1.60;;;1.10;;
15573;SDS011;7888;46.748;8.102;2023-02-18T13:56:45;1.13;;;0.70;;
15573;SDS011;7888;46.748;8.102;2023-02-18T14:01:50;1.73;;;0.90;;
15573;SDS011;7888;46.748;8.102;2023-02-18T14:07:18;2.20;;;0.80;;
15573;SDS011;7888;46.748;8.102;2023-02-18T14:09:54;0.85;;;0.73;;
15573;SDS011;7888;46.748;8.102;2023-02-18T14:12:24;1.00;;;0.80;;
15573;SDS011;7888;46.748;8.102;2023-02-18T14:15:45;1.05;;;0.90;;
15573;SDS011;7888;46.748;8.102;2023-02-18T14:28:35;1.05;;;0.80;;
15573;SDS011;7888;46.748;8.102;2023-02-18T14:40:15;2.78;;;0.93;;
15573;SDS011;7888;46.748;8.102;2023-02-18T14:52:13;0.73;;;0.70;;
15573;SDS011;7888;46.748;8.102;2023-02-18T14:55:28;1.77;;;0.88;;
15573;SDS011;7888;46.748;8.102;2023-02-18T14:58:11;1.50;;;0.85;;
15573;SDS011;7888;46.748;8.102;2023-02-18T15:00:53;0.60;;;0.60;;
15573;SDS011;7888;46.748;8.102;2023-02-18T15:03:19;2.40;;;0.98;;
15573;SDS011;7888;46.748;8.102;2023-02-18T15:05:47;1.15;;;0.80;;
15573;SDS011;7888;46.748;8.102;2023-02-18T15:08:21;1.42;;;0.70;;
15573;SDS011;7888;46.748;8.102;2023-02-18T15:10:52;1.00;;;0.80;;
15573;SDS011;7888;46.748;8.102;2023-02-18T15:13:58;1.17;;;0.73;;
15573;SDS011;7888;46.748;8.102;2023-02-18T15:16:27;1.42;;;1.20;;
15573;SDS011;7888;46.748;8.102;2023-02-18T15:19:01;2.97;;;2.30;;
15573;SDS011;7888;46.748;8.102;2023-02-18T15:21:34;1.42;;;1.33;;
15573;SDS011;7888;46.748;8.102;2023-02-18T15:24:24;1.20;;;1.10;;
15573;SDS011;7888;46.748;8.102;2023-02-18T15:26:57;1.00;;;0.90;;
15573;SDS011;7888;46.748;8.102;2023-02-18T15:29:49;0.98;;;0.77;;
15573;SDS011;7888;46.748;8.102;2023-02-18T15:32:22;1.20;;;0.60;;
15573;SDS011;7888;46.748;8.102;2023-02-18T15:34:57;0.90;;;0.60;;
15573;SDS011;7888;46.748;8.102;2023-02-18T15:37:26;0.52;;;0.52;;
15573;SDS011;7888;46.748;8.102;2023-02-18T15:39:53;0.82;;;0.52;;
15573;SDS011;7888;46.748;8.102;2023-02-18T15:42:29;2.70;;;0.50;;
15573;SDS011;7888;46.748;8.102;2023-02-18T15:47:45;1.67;;;1.02;;
15573;SDS011;7888;46.748;8.102;2023-02-18T15:50:23;1.05;;;0.63;;
15573;SDS011;7888;46.748;8.102;2023-02-18T15:52:55;1.20;;;0.63;;
15573;SDS011;7888;46.748;8.102;2023-02-18T15:55:29;1.02;;;0.73;;
15573;SDS011;7888;46.748;8.102;2023-02-18T15:58:00;0.60;;;0.60;;
15573;SDS011;7888;46.748;8.102;2023-02-18T16:00:36;0.70;;;0.63;;
15573;SDS011;7888;46.748;8.102;2023-02-18T16:03:12;0.65;;;0.60;;
15573;SDS011;7888;46.748;8.102;2023-02-18T16:08:59;1.02;;;0.60;;
15573;SDS011;7888;46.748;8.102;2023-02-18T16:11:47;0.55;;;0.47;;
15573;SDS011;7888;46.748;8.102;2023-02-18T16:14:31;1.35;;;0.52;;
15573;SDS011;7888;46.748;8.102;2023-02-18T16:17:19;0.65;;;0.60;;
15573;SDS011;7888;46.748;8.102;2023-02-18T16:19:55;0.50;;;0.50;;
15573;SDS011;7888;46.748;8.102;2023-02-18T16:22:43;2.00;;;0.70;;
15573;SDS011;7888;46.748;8.102;2023-02-18T16:25:20;1.17;;;0.80;;
15573;SDS011;7888;46.748;8.102;2023-02-18T16:30:26;0.68;;;0.60;;
15573;SDS011;7888;46.748;8.102;2023-02-18T16:32:55;0.80;;;0.50;;
15573;SDS011;7888;46.748;8.102;2023-02-18T16:35:23;1.48;;;0.70;;
15573;SDS011;7888;46.748;8.102;2023-02-18T16:37:52;1.07;;;0.60;;
15573;SDS011;7888;46.748;8.102;2023-02-18T16:43:08;1.13;;;0.70;;
15573;SDS011;7888;46.748;8.102;2023-02-18T16:45:41;0.90;;;0.60;;
15573;SDS011;7888;46.748;8.102;2023-02-18T16:48:14;1.03;;;0.67;;
15573;SDS011;7888;46.748;8.102;2023-02-18T16:50:48;1.20;;;0.70;;
15573;SDS011;7888;46.748;8.102;2023-02-18T16:53:15;1.27;;;0.63;;
15573;SDS011;7888;46.748;8.102;2023-02-18T16:55:41;1.20;;;0.80;;
15573;SDS011;7888;46.748;8.102;2023-02-18T16:58:07;1.27;;;0.63;;
15573;SDS011;7888;46.748;8.102;2023-02-18T17:00:33;1.50;;;0.80;;
15573;SDS011;7888;46.748;8.102;2023-02-18T17:02:59;1.57;;;0.80;;
15573;SDS011;7888;46.748;8.102;2023-02-18T17:05:26;2.67;;;0.90;;
15573;SDS011;7888;46.748;8.102;2023-02-18T17:07:58;2.07;;;1.00;;
15573;SDS011;7888;46.748;8.102;2023-02-18T17:10:40;1.90;;;0.70;;
15573;SDS011;7888;46.748;8.102;2023-02-18T17:13:09;1.03;;;0.80;;
15573;SDS011;7888;46.748;8.102;2023-02-18T17:15:43;0.97;;;0.87;;
15573;SDS011;7888;46.748;8.102;2023-02-18T17:18:11;0.90;;;0.60;;
15573;SDS011;7888;46.748;8.102;2023-02-18T17:20:37;0.60;;;0.60;;
15573;SDS011;7888;46.748;8.102;2023-02-18T17:23:03;1.30;;;0.90;;
15573;SDS011;7888;46.748;8.102;2023-02-18T17:25:37;1.40;;;0.57;;
15573;SDS011;7888;46.748;8.102;2023-02-18T17:28:05;1.73;;;0.53;;
15573;SDS011;7888;46.748;8.102;2023-02-18T17:30:31;0.70;;;0.70;;
15573;SDS011;7888;46.748;8.102;2023-02-18T17:33:02;0.93;;;0.83;;
15573;SDS011;7888;46.748;8.102;2023-02-18T17:35:30;0.90;;;0.77;;
15573;SDS011;7888;46.748;8.102;2023-02-18T17:37:56;3.03;;;0.83;;
15573;SDS011;7888;46.748;8.102;2023-02-18T17:40:23;2.17;;;0.80;;
15573;SDS011;7888;46.748;8.102;2023-02-18T17:42:52;1.57;;;0.80;;
15573;SDS011;7888;46.748;8.102;2023-02-18T17:47:56;0.60;;;0.60;;
15573;SDS011;7888;46.748;8.102;2023-02-18T17:50:24;0.80;;;0.80;;
15573;SDS011;7888;46.748;8.102;2023-02-18T17:52:52;1.03;;;0.93;;
15573;SDS011;7888;46.748;8.102;2023-02-18T17:55:32;2.87;;;0.90;;
15573;SDS011;7888;46.748;8.102;2023-02-18T17:58:00;3.13;;;0.93;;
15573;SDS011;7888;46.748;8.102;2023-02-18T18:03:02;1.37;;;1.00;;
15573;SDS011;7888;46.748;8.102;2023-02-18T18:05:32;1.70;;;1.60;;
15573;SDS011;7888;46.748;8.102;2023-02-18T18:08:02;1.80;;;1.60;;
15573;SDS011;7888;46.748;8.102;2023-02-18T18:10:30;2.30;;;1.60;;
15573;SDS011;7888;46.748;8.102;2023-02-18T18:13:01;2.33;;;1.47;;
15573;SDS011;7888;46.748;8.102;2023-02-18T18:18:01;2.40;;;1.30;;
15573;SDS011;7888;46.748;8.102;2023-02-18T18:20:28;1.63;;;1.30;;
15573;SDS011;7888;46.748;8.102;2023-02-18T18:22:57;1.63;;;1.40;;
15573;SDS011;7888;46.748;8.102;2023-02-18T18:25:30;3.10;;;1.67;;
15573;SDS011;7888;46.748;8.102;2023-02-18T18:28:03;2.47;;;2.23;;